createdAt,value
2019-01-14T00:01:29.218Z,69.75
2019-01-14T00:03:57.243Z,69.77
2019-01-14T00:06:25.404Z,69.78
2019-01-14T00:08:53.755Z,69.75
2019-01-14T00:11:21.784Z,69.80
2019-01-14T00:13:49.828Z,69.85
2019-01-14T00:16:17.842Z,69.86
2019-01-14T00:18:45.906Z,69.87
2019-01-14T00:21:13.924Z,69.88
2019-01-14T00:23:41.955Z,69.87
2019-01-14T00:26:10.863Z,69.88
2019-01-14T00:28:39.099Z,69.87
2019-01-14T00:31:07.148Z,69.85
2019-01-14T00:33:35.220Z,69.87
2019-01-14T00:36:03.186Z,69.87
2019-01-14T00:38:31.909Z,69.86
2019-01-14T00:40:59.893Z,69.88
2019-01-14T00:43:27.946Z,69.85
2019-01-14T00:45:55.979Z,69.86
2019-01-14T00:48:24.004Z,69.88
2019-01-14T00:50:52.024Z,69.89
2019-01-14T00:53:20.069Z,69.94
2019-01-14T00:55:48.064Z,69.90
2019-01-14T00:58:16.228Z,69.92
2019-01-14T01:00:44.265Z,69.91
2019-01-14T01:03:12.309Z,69.90
2019-01-14T01:05:40.344Z,69.88
2019-01-14T01:08:08.370Z,69.89
2019-01-14T01:10:36.472Z,69.89
2019-01-14T01:13:04.820Z,69.90
2019-01-14T01:15:32.844Z,69.88
2019-01-14T01:18:02.839Z,69.83
2019-01-14T01:20:31.281Z,69.87
2019-01-14T01:22:59.312Z,69.85
2019-01-14T01:25:27.369Z,69.85
2019-01-14T01:27:55.390Z,69.86
2019-01-14T01:30:23.424Z,69.86
2019-01-14T01:32:51.465Z,69.83
2019-01-14T01:35:19.514Z,69.80
2019-01-14T01:37:47.550Z,69.78
2019-01-14T01:40:20.068Z,69.76
2019-01-14T01:42:48.113Z,69.74
2019-01-14T01:45:16.546Z,69.69
2019-01-14T01:47:44.616Z,69.73
2019-01-14T01:50:16.528Z,69.77
2019-01-14T01:52:44.579Z,69.78
2019-01-14T01:55:12.638Z,69.76
2019-01-14T01:57:40.696Z,69.78
2019-01-14T02:00:13.655Z,69.79
2019-01-14T02:02:41.702Z,69.77
2019-01-14T02:05:10.577Z,69.71
2019-01-14T02:07:38.594Z,69.75
2019-01-14T02:10:10.158Z,69.71
2019-01-14T02:12:38.198Z,69.69
2019-01-14T02:15:15.896Z,69.68
2019-01-14T02:17:44.023Z,69.67
2019-01-14T02:20:15.155Z,69.69
2019-01-14T02:22:43.643Z,69.69
2019-01-14T02:25:13.534Z,69.69
2019-01-14T02:27:42.026Z,69.71
2019-01-14T02:30:18.087Z,69.68
2019-01-14T02:32:46.108Z,69.70
2019-01-14T02:35:14.281Z,69.79
2019-01-14T02:37:42.354Z,69.85
2019-01-14T02:40:14.055Z,69.87
2019-01-14T02:42:42.092Z,69.88
2019-01-14T02:45:10.517Z,69.87
2019-01-14T02:47:38.550Z,69.87
2019-01-14T02:50:07.728Z,69.85
2019-01-14T02:52:39.760Z,69.85
2019-01-14T02:55:07.254Z,69.87
2019-01-14T02:57:36.478Z,69.94
2019-01-14T03:00:19.456Z,70.00
2019-01-14T03:02:47.838Z,70.03
2019-01-14T03:05:15.895Z,70.01
2019-01-14T03:07:44.956Z,70.00
2019-01-14T03:10:13.215Z,69.98
2019-01-14T03:12:41.259Z,69.94
2019-01-14T03:15:09.816Z,69.94
2019-01-14T03:17:37.860Z,69.96
2019-01-14T03:20:08.786Z,69.93
2019-01-14T03:22:36.911Z,69.92
2019-01-14T03:25:05.906Z,69.91
2019-01-14T03:27:34.393Z,69.90
2019-01-14T03:30:04.364Z,69.87
2019-01-14T03:32:32.512Z,69.86
2019-01-14T03:35:00.630Z,69.86
2019-01-14T03:37:28.770Z,69.85
2019-01-14T03:39:56.815Z,69.80
2019-01-14T03:42:24.864Z,69.77
2019-01-14T03:44:52.937Z,69.78
2019-01-14T03:47:21.015Z,69.73
2019-01-14T03:49:50.029Z,69.70
2019-01-14T03:52:18.057Z,69.71
2019-01-14T03:54:46.422Z,69.69
2019-01-14T03:57:14.487Z,69.68
2019-01-14T03:59:42.575Z,69.66
2019-01-14T04:02:10.630Z,69.66
2019-01-14T04:04:38.687Z,69.64
2019-01-14T04:07:13.552Z,69.62
2019-01-14T04:09:36.769Z,69.63
2019-01-14T04:12:04.846Z,69.60
2019-01-14T04:14:32.928Z,69.64
2019-01-14T04:17:01.188Z,69.65
2019-01-14T04:19:29.256Z,69.60
2019-01-14T04:21:57.308Z,69.64
2019-01-14T04:24:25.949Z,69.64
2019-01-14T04:26:54.022Z,69.62
2019-01-14T04:29:22.074Z,69.61
2019-01-14T04:31:51.276Z,69.62
2019-01-14T04:34:19.325Z,69.59
2019-01-14T04:36:47.402Z,69.58
2019-01-14T04:39:15.671Z,69.56
2019-01-14T04:41:44.309Z,69.56
2019-01-14T04:44:12.501Z,69.54
2019-01-14T04:46:40.582Z,69.47
2019-01-14T04:49:08.673Z,69.42
2019-01-14T04:51:37.074Z,69.40
2019-01-14T04:54:05.245Z,69.38
2019-01-14T04:56:33.304Z,69.38
2019-01-14T04:59:01.361Z,69.40
2019-01-14T05:01:29.607Z,69.42
2019-01-14T05:03:57.641Z,69.44
2019-01-14T05:06:26.837Z,69.46
2019-01-14T05:08:55.158Z,69.47
2019-01-14T05:11:23.230Z,69.46
2019-01-14T05:13:52.566Z,69.47
2019-01-14T05:16:20.618Z,69.50
2019-01-14T05:18:50.707Z,69.47
2019-01-14T05:21:18.782Z,69.46
2019-01-14T05:23:46.835Z,69.44
2019-01-14T05:26:15.017Z,69.39
2019-01-14T05:28:43.058Z,69.41
2019-01-14T05:31:11.567Z,69.42
2019-01-14T05:33:39.676Z,69.40
2019-01-14T05:36:08.903Z,69.37
2019-01-14T05:38:37.030Z,69.37
2019-01-14T05:41:05.519Z,69.36
2019-01-14T05:43:33.574Z,69.37
2019-01-14T05:46:01.753Z,69.37
2019-01-14T05:48:30.155Z,69.36
2019-01-14T05:50:58.268Z,69.38
2019-01-14T05:53:26.402Z,69.39
2019-01-14T05:55:54.491Z,69.36
2019-01-14T05:58:22.558Z,69.34
2019-01-14T06:00:50.646Z,69.35
2019-01-14T06:03:18.741Z,69.34
2019-01-14T06:05:46.889Z,69.32
2019-01-14T06:08:15.338Z,69.29
2019-01-14T06:10:43.447Z,69.31
2019-01-14T06:13:11.508Z,69.30
2019-01-14T06:15:39.595Z,69.30
2019-01-14T06:18:07.638Z,69.30
2019-01-14T06:20:35.902Z,69.27
2019-01-14T06:23:04.246Z,69.27
2019-01-14T06:25:32.417Z,69.26
2019-01-14T06:28:00.609Z,69.23
2019-01-14T06:30:29.757Z,69.19
2019-01-14T06:32:58.286Z,69.15
2019-01-14T06:35:26.296Z,69.19
2019-01-14T06:37:54.448Z,69.21
2019-01-14T06:40:22.736Z,69.25
2019-01-14T06:42:51.088Z,69.26
2019-01-14T06:45:19.144Z,69.22
2019-01-14T06:47:47.431Z,69.16
2019-01-14T06:50:17.496Z,69.14
2019-01-14T06:52:45.581Z,69.12
2019-01-14T06:55:14.170Z,69.14
2019-01-14T06:57:42.331Z,69.16
2019-01-14T07:00:23.804Z,69.13
2019-01-14T07:02:51.970Z,69.13
2019-01-14T07:05:20.253Z,69.13
2019-01-14T07:07:48.357Z,69.14
2019-01-14T07:10:21.937Z,69.16
2019-01-14T07:12:49.974Z,69.14
2019-01-14T07:15:19.091Z,69.18
2019-01-14T07:17:48.190Z,69.18
2019-01-14T07:20:17.792Z,69.19
2019-01-14T07:22:45.815Z,69.19
2019-01-14T07:25:13.845Z,69.13
2019-01-14T07:27:41.918Z,69.14
2019-01-14T07:30:13.641Z,69.12
2019-01-14T07:32:41.729Z,69.13
2019-01-14T07:35:10.025Z,69.15
2019-01-14T07:37:38.269Z,69.13
2019-01-14T07:40:08.652Z,69.11
2019-01-14T07:42:37.103Z,69.10
2019-01-14T07:45:05.702Z,69.08
2019-01-14T07:47:33.747Z,69.04
2019-01-14T07:50:02.388Z,69.05
2019-01-14T07:52:30.697Z,69.08
2019-01-14T07:54:59.066Z,69.10
2019-01-14T07:57:27.196Z,69.10
2019-01-14T07:59:55.245Z,69.11
2019-01-14T08:02:23.333Z,69.13
2019-01-14T08:04:51.415Z,69.15
2019-01-14T08:07:19.488Z,69.13
2019-01-14T08:09:47.672Z,69.13
2019-01-14T08:12:15.730Z,69.10
2019-01-14T08:14:43.782Z,69.09
2019-01-14T08:17:11.850Z,69.06
2019-01-14T08:19:39.923Z,69.01
2019-01-14T08:22:08.018Z,68.97
2019-01-14T08:24:36.046Z,68.92
2019-01-14T08:27:04.142Z,68.85
2019-01-14T08:29:32.562Z,68.82
2019-01-14T08:32:00.644Z,68.84
2019-01-14T08:34:28.680Z,68.86
2019-01-14T08:37:00.683Z,68.85
2019-01-14T08:39:26.742Z,68.87
2019-01-14T08:42:01.795Z,68.84
2019-01-14T08:44:41.304Z,68.86
2019-01-14T08:47:09.350Z,68.87
2019-01-14T08:49:37.736Z,68.90
2019-01-14T08:52:06.131Z,68.92
2019-01-14T08:54:34.181Z,68.96
2019-01-14T08:57:02.389Z,68.97
2019-01-14T08:59:31.371Z,68.97
2019-01-14T09:01:59.448Z,69.01
2019-01-14T09:04:32.314Z,68.98
2019-01-14T09:06:57.598Z,68.95
2019-01-14T09:09:25.617Z,68.95
2019-01-14T09:11:54.960Z,68.97
2019-01-14T09:14:22.979Z,68.97
2019-01-14T09:16:50.963Z,69.00
2019-01-14T09:19:19.094Z,69.05
2019-01-14T09:21:47.577Z,69.09
2019-01-14T09:24:15.622Z,69.08
2019-01-14T09:26:45.029Z,69.06
2019-01-14T09:29:13.156Z,68.99
2019-01-14T09:31:41.709Z,68.91
2019-01-14T09:34:09.835Z,68.81
2019-01-14T09:36:37.880Z,68.73
2019-01-14T09:39:09.249Z,68.60
2019-01-14T09:41:37.255Z,68.52
2019-01-14T09:44:05.995Z,68.40
2019-01-14T09:46:33.998Z,68.26
2019-01-14T09:49:02.042Z,68.05
2019-01-14T09:51:30.044Z,67.76
2019-01-14T09:53:58.036Z,67.49
2019-01-14T09:56:26.050Z,67.31
2019-01-14T09:58:55.529Z,67.15
2019-01-14T10:01:23.547Z,67.02
2019-01-14T10:03:51.584Z,66.90
2019-01-14T10:06:19.487Z,66.78
2019-01-14T10:08:47.496Z,66.69
2019-01-14T10:11:15.485Z,66.70
2019-01-14T10:13:43.508Z,66.69
2019-01-14T10:16:11.470Z,66.77
2019-01-14T10:18:39.504Z,66.85
2019-01-14T10:21:07.500Z,66.87
2019-01-14T10:23:35.873Z,66.83
2019-01-14T10:26:04.078Z,66.82
2019-01-14T10:28:32.103Z,66.79
2019-01-14T10:31:00.450Z,66.75
2019-01-14T10:33:28.527Z,66.75
2019-01-14T10:35:56.722Z,66.72
2019-01-14T10:38:24.736Z,66.74
2019-01-14T10:40:52.705Z,66.73
2019-01-14T10:43:20.683Z,66.71
2019-01-14T10:45:48.696Z,66.76
2019-01-14T10:48:16.703Z,66.77
2019-01-14T10:50:44.678Z,66.78
2019-01-14T10:53:12.782Z,66.71
2019-01-14T10:55:40.741Z,66.66
2019-01-14T10:58:08.822Z,66.65
2019-01-14T11:00:36.803Z,66.64
2019-01-14T11:03:04.795Z,66.66
2019-01-14T11:05:32.796Z,66.69
2019-01-14T11:08:00.795Z,66.71
2019-01-14T11:10:28.803Z,66.77
2019-01-14T11:12:56.780Z,66.81
2019-01-14T11:15:24.934Z,66.83
2019-01-14T11:17:52.941Z,66.86
2019-01-14T11:20:27.414Z,66.79
2019-01-14T11:22:55.549Z,66.81
2019-01-14T11:25:23.580Z,66.75
2019-01-14T11:27:51.611Z,66.73
2019-01-14T11:30:23.937Z,66.74
2019-01-14T11:32:51.941Z,66.74
2019-01-14T11:35:19.976Z,66.70
2019-01-14T11:37:47.972Z,66.69
2019-01-14T11:40:19.657Z,66.65
2019-01-14T11:42:47.648Z,66.54
2019-01-14T11:45:15.662Z,66.53
2019-01-14T11:47:43.661Z,66.51
2019-01-14T11:50:13.921Z,66.53
2019-01-14T11:52:42.308Z,66.48
2019-01-14T11:55:10.525Z,66.45
2019-01-14T11:57:38.577Z,66.41
2019-01-14T12:00:18.078Z,66.38
2019-01-14T12:02:46.051Z,66.39
2019-01-14T12:05:14.330Z,66.37
2019-01-14T12:07:42.507Z,66.34
2019-01-14T12:10:10.652Z,66.32
2019-01-14T12:12:38.634Z,66.32
2019-01-14T12:15:12.729Z,66.33
2019-01-14T12:17:40.789Z,66.34
2019-01-14T12:20:10.311Z,66.30
2019-01-14T12:22:38.385Z,66.26
2019-01-14T12:25:06.834Z,66.25
2019-01-14T12:27:34.843Z,66.25
2019-01-14T12:30:07.089Z,66.24
2019-01-14T12:32:35.126Z,66.25
2019-01-14T12:35:03.663Z,66.24
2019-01-14T12:37:31.665Z,66.23
2019-01-14T12:39:59.679Z,66.25
2019-01-14T12:42:27.690Z,66.29
2019-01-14T12:44:55.671Z,66.30
2019-01-14T12:47:23.664Z,66.36
2019-01-14T12:49:51.661Z,66.36
2019-01-14T12:52:19.611Z,66.35
2019-01-14T12:54:47.602Z,66.29
2019-01-14T12:57:15.848Z,66.29
2019-01-14T12:59:43.850Z,66.29
2019-01-14T13:02:11.851Z,66.33
2019-01-14T13:04:39.860Z,66.36
2019-01-14T13:07:08.827Z,66.40
2019-01-14T13:09:36.810Z,66.44
2019-01-14T13:12:05.099Z,66.46
2019-01-14T13:14:33.413Z,66.50
2019-01-14T13:17:01.422Z,66.58
2019-01-14T13:19:29.391Z,66.64
2019-01-14T13:21:58.092Z,66.63
2019-01-14T13:24:26.389Z,66.63
2019-01-14T13:26:54.422Z,66.61
2019-01-14T13:29:22.500Z,66.62
2019-01-14T13:31:50.541Z,66.60
2019-01-14T13:34:18.634Z,66.55
2019-01-14T13:36:46.695Z,66.57
2019-01-14T13:39:14.755Z,66.52
2019-01-14T13:41:42.801Z,66.52
2019-01-14T13:44:10.896Z,66.53
2019-01-14T13:46:38.971Z,66.49
2019-01-14T13:49:07.120Z,66.44
2019-01-14T13:51:35.122Z,66.42
2019-01-14T13:54:03.672Z,66.40
2019-01-14T13:56:31.801Z,66.37
2019-01-14T13:58:59.878Z,66.33
2019-01-14T14:01:27.970Z,66.32
2019-01-14T14:03:57.348Z,66.29
2019-01-14T14:06:25.532Z,66.26
2019-01-14T14:08:53.668Z,66.28
2019-01-14T14:11:21.879Z,66.23
2019-01-14T14:13:49.901Z,66.21
2019-01-14T14:16:18.021Z,66.16
2019-01-14T14:18:46.166Z,66.16
2019-01-14T14:21:14.411Z,66.17
2019-01-14T14:23:43.585Z,66.20
2019-01-14T14:26:11.585Z,66.22
2019-01-14T14:28:39.575Z,66.25
2019-01-14T14:31:07.644Z,66.26
2019-01-14T14:33:36.018Z,66.21
2019-01-14T14:36:04.014Z,66.18
2019-01-14T14:38:32.367Z,66.20
2019-01-14T14:41:00.370Z,66.17
2019-01-14T14:43:28.349Z,66.10
2019-01-14T14:45:57.755Z,66.04
2019-01-14T14:48:25.733Z,65.98
2019-01-14T14:50:53.748Z,65.92
2019-01-14T14:53:21.762Z,65.91
2019-01-14T14:55:49.866Z,65.89
2019-01-14T14:58:18.253Z,65.83
2019-01-14T15:00:46.394Z,65.82
2019-01-14T15:03:14.382Z,65.73
2019-01-14T15:05:42.356Z,65.75
2019-01-14T15:08:10.376Z,65.72
2019-01-14T15:10:38.383Z,65.72
2019-01-14T15:13:06.415Z,65.68
2019-01-14T15:15:34.476Z,65.63
2019-01-14T15:18:03.230Z,65.60
2019-01-14T15:20:31.285Z,65.56
2019-01-14T15:22:59.391Z,65.56
2019-01-14T15:25:27.365Z,65.57
2019-01-14T15:27:55.668Z,65.53
2019-01-14T15:30:27.161Z,65.51
2019-01-14T15:32:55.158Z,65.48
2019-01-14T15:35:23.671Z,65.49
2019-01-14T15:37:52.906Z,65.50
2019-01-14T15:40:21.831Z,65.48
2019-01-14T15:42:49.980Z,65.39
2019-01-14T15:45:18.998Z,65.36
2019-01-14T15:47:47.080Z,65.30
2019-01-14T15:50:15.185Z,65.28
2019-01-14T15:52:43.498Z,65.26
2019-01-14T15:55:15.805Z,65.25
2019-01-14T15:57:43.907Z,65.27
2019-01-14T16:00:14.390Z,65.25
2019-01-14T16:02:42.982Z,65.30
2019-01-14T16:05:13.413Z,65.29
2019-01-14T16:07:41.476Z,65.30
2019-01-14T16:10:16.299Z,65.32
2019-01-14T16:12:44.462Z,65.31
2019-01-14T16:15:13.030Z,65.31
2019-01-14T16:17:41.056Z,65.25
2019-01-14T16:20:12.379Z,65.22
2019-01-14T16:22:40.525Z,65.19
2019-01-14T16:25:09.013Z,65.23
2019-01-14T16:27:38.591Z,65.27
2019-01-14T16:30:14.119Z,65.31
2019-01-14T16:32:42.131Z,65.34
2019-01-14T16:35:12.240Z,65.42
2019-01-14T16:37:40.377Z,65.43
2019-01-14T16:40:08.774Z,65.47
2019-01-14T16:42:37.038Z,65.49
2019-01-14T16:45:08.581Z,65.47
2019-01-14T16:47:36.739Z,65.47
2019-01-14T16:50:06.535Z,65.47
2019-01-14T16:52:34.972Z,65.45
2019-01-14T16:55:04.157Z,65.44
2019-01-14T16:57:32.607Z,65.45
2019-01-14T17:00:01.078Z,65.45
2019-01-14T17:02:29.419Z,65.46
2019-01-14T17:04:57.574Z,65.44
2019-01-14T17:07:26.865Z,65.48
2019-01-14T17:09:54.885Z,65.51
2019-01-14T17:12:22.999Z,65.56
2019-01-14T17:14:51.170Z,65.61
2019-01-14T17:17:19.395Z,65.62
2019-01-14T17:19:48.521Z,65.66
2019-01-14T17:22:16.667Z,65.69
2019-01-14T17:24:45.035Z,65.71
2019-01-14T17:27:13.221Z,65.69
2019-01-14T17:29:41.345Z,65.75
2019-01-14T17:32:09.568Z,65.81
2019-01-14T17:34:37.803Z,65.86
2019-01-14T17:37:05.857Z,65.93
2019-01-14T17:39:34.186Z,65.92
2019-01-14T17:42:03.042Z,66.02
2019-01-14T17:44:31.219Z,66.09
2019-01-14T17:46:59.254Z,66.16
2019-01-14T17:49:27.397Z,66.20
2019-01-14T17:51:55.614Z,66.23
2019-01-14T17:54:24.136Z,66.24
2019-01-14T17:56:52.209Z,66.18
2019-01-14T17:59:22.579Z,66.18
2019-01-14T18:01:50.798Z,66.12
2019-01-14T18:04:19.958Z,66.09
2019-01-14T18:06:48.212Z,66.02
2019-01-14T18:09:16.465Z,65.96
2019-01-14T18:11:44.865Z,65.89
2019-01-14T18:14:13.070Z,65.82
2019-01-14T18:16:41.302Z,65.87
2019-01-14T18:19:09.436Z,66.01
2019-01-14T18:21:37.479Z,66.12
2019-01-14T18:24:05.626Z,66.19
2019-01-14T18:26:33.663Z,66.30
2019-01-14T18:29:01.913Z,66.25
2019-01-14T18:31:30.181Z,66.30
2019-01-14T18:33:59.563Z,66.37
2019-01-14T18:36:27.622Z,66.48
2019-01-14T18:38:55.727Z,66.62
2019-01-14T18:41:24.662Z,66.66
2019-01-14T18:43:52.871Z,66.68
2019-01-14T18:46:21.273Z,66.71
2019-01-14T18:48:49.426Z,66.68
2019-01-14T18:51:17.535Z,66.64
2019-01-14T18:53:45.808Z,66.60
2019-01-14T18:56:14.006Z,66.58
2019-01-14T18:58:42.142Z,66.55
2019-01-14T19:01:10.735Z,66.54
2019-01-14T19:03:38.717Z,66.53
2019-01-14T19:06:07.349Z,66.46
2019-01-14T19:08:35.587Z,66.45
2019-01-14T19:11:03.889Z,66.44
2019-01-14T19:13:31.941Z,66.37
2019-01-14T19:16:01.334Z,66.36
2019-01-14T19:18:29.372Z,66.33
2019-01-14T19:20:57.865Z,66.36
2019-01-14T19:23:26.076Z,66.35
2019-01-14T19:25:54.715Z,66.34
2019-01-14T19:28:22.948Z,66.35
2019-01-14T19:30:51.177Z,66.34
2019-01-14T19:33:19.225Z,66.32
2019-01-14T19:35:47.443Z,66.31
2019-01-14T19:38:15.474Z,66.35
2019-01-14T19:40:43.678Z,66.36
2019-01-14T19:43:11.764Z,66.38
2019-01-14T19:45:39.862Z,66.43
2019-01-14T19:48:08.153Z,66.44
2019-01-14T19:50:36.247Z,66.42
2019-01-14T19:53:04.374Z,66.44
2019-01-14T19:55:32.586Z,66.48
2019-01-14T19:58:01.697Z,66.49
2019-01-14T20:00:31.143Z,66.48
2019-01-14T20:02:59.320Z,66.50
2019-01-14T20:05:27.523Z,66.49
2019-01-14T20:07:56.119Z,66.48
2019-01-14T20:10:24.677Z,66.47
2019-01-14T20:12:53.808Z,66.46
2019-01-14T20:15:22.073Z,66.48
2019-01-14T20:17:50.315Z,66.46
2019-01-14T20:20:18.784Z,66.48
2019-01-14T20:22:46.898Z,66.48
2019-01-14T20:25:15.131Z,66.50
2019-01-14T20:27:43.763Z,66.52
2019-01-14T20:30:20.381Z,66.51
2019-01-14T20:32:48.545Z,66.48
2019-01-14T20:35:17.023Z,66.47
2019-01-14T20:37:45.101Z,66.50
2019-01-14T20:40:13.769Z,66.49
2019-01-14T20:42:42.123Z,66.52
2019-01-14T20:45:11.755Z,66.53
2019-01-14T20:47:39.789Z,66.56
2019-01-14T20:50:10.905Z,66.57
2019-01-14T20:52:40.151Z,66.60
2019-01-14T20:55:08.577Z,66.63
2019-01-14T20:57:36.777Z,66.66
2019-01-14T21:00:13.435Z,66.66
2019-01-14T21:02:42.833Z,66.66
2019-01-14T21:05:10.991Z,66.65
2019-01-14T21:07:39.050Z,66.67
2019-01-14T21:10:09.176Z,66.66
2019-01-14T21:12:38.393Z,66.63
2019-01-14T21:15:07.677Z,66.63
2019-01-14T21:17:36.080Z,66.63
2019-01-14T21:20:07.947Z,66.60
2019-01-14T21:22:36.049Z,66.59
2019-01-14T21:25:04.906Z,66.56
2019-01-14T21:27:33.004Z,66.57
2019-01-14T21:30:03.164Z,66.57
2019-01-14T21:32:31.258Z,66.56
2019-01-14T21:34:59.300Z,66.56
2019-01-14T21:37:27.361Z,66.57
2019-01-14T21:39:55.397Z,66.59
2019-01-14T21:42:24.021Z,66.60
2019-01-14T21:44:52.093Z,66.60
2019-01-14T21:47:20.238Z,66.63
2019-01-14T21:49:48.274Z,66.67
2019-01-14T21:52:16.674Z,66.74
2019-01-14T21:54:44.700Z,66.84
2019-01-14T21:57:12.805Z,66.89
2019-01-14T21:59:40.825Z,66.95
2019-01-14T22:02:08.931Z,66.95
2019-01-14T22:04:37.006Z,66.94
2019-01-14T22:07:05.083Z,66.92
2019-01-14T22:09:33.226Z,66.90
2019-01-14T22:12:04.265Z,66.87
2019-01-14T22:14:32.310Z,66.80
2019-01-14T22:17:00.366Z,66.79
2019-01-14T22:19:28.403Z,66.77
2019-01-14T22:21:56.458Z,66.72
2019-01-14T22:24:24.494Z,66.70
2019-01-14T22:26:52.538Z,66.67
2019-01-14T22:29:20.592Z,66.64
2019-01-14T22:31:49.777Z,66.63
2019-01-14T22:34:17.786Z,66.61
2019-01-14T22:36:45.847Z,66.65
2019-01-14T22:39:13.980Z,66.69
2019-01-14T22:41:45.943Z,66.72
2019-01-14T22:44:12.004Z,66.75
2019-01-14T22:46:40.077Z,66.80
2019-01-14T22:49:08.110Z,66.85
2019-01-14T22:51:36.171Z,66.89
2019-01-14T22:54:05.064Z,66.89
2019-01-14T22:56:33.126Z,67.01
2019-01-14T22:59:01.288Z,67.10
2019-01-14T23:01:36.706Z,67.15
2019-01-14T23:04:05.196Z,67.23
2019-01-14T23:06:33.398Z,67.27
2019-01-14T23:09:01.458Z,67.36
2019-01-14T23:11:29.507Z,67.41
2019-01-14T23:13:57.870Z,67.43
2019-01-14T23:16:25.910Z,67.50
2019-01-14T23:18:53.951Z,67.51
2019-01-14T23:21:22.357Z,67.52
2019-01-14T23:23:50.401Z,67.54
2019-01-14T23:26:18.469Z,67.58
2019-01-14T23:28:46.524Z,67.61
2019-01-14T23:31:14.576Z,67.64
2019-01-14T23:33:42.626Z,67.65
2019-01-14T23:36:10.688Z,67.69
2019-01-14T23:38:38.752Z,67.71
2019-01-14T23:41:06.859Z,67.75
2019-01-14T23:43:35.267Z,67.78
2019-01-14T23:46:04.783Z,67.79
2019-01-14T23:48:32.862Z,67.81
2019-01-14T23:51:01.090Z,67.78
2019-01-14T23:53:29.165Z,67.75
2019-01-14T23:55:57.196Z,67.73
2019-01-14T23:58:25.632Z,67.72
